createdAt,value
2023-02-05T00:00:41.938Z,11.63
2023-02-05T00:02:47.417Z,11.93
2023-02-05T00:04:53.384Z,11.57
2023-02-05T00:06:58.708Z,12.15
2023-02-05T00:09:03.609Z,11.25
2023-02-05T00:11:10.747Z,10.95
2023-02-05T00:13:15.651Z,9.75
2023-02-05T00:15:21.174Z,9.98
2023-02-05T00:17:28.680Z,9.40
2023-02-05T00:19:34.273Z,9.85
2023-02-05T00:21:39.539Z,9.65
2023-02-05T00:23:45.280Z,9.90
2023-02-05T00:25:50.180Z,10.02
2023-02-05T00:27:55.475Z,11.10
2023-02-05T00:30:00.897Z,10.93
2023-02-05T00:32:06.508Z,10.23
2023-02-05T00:34:14.015Z,10.70
2023-02-05T00:36:20.711Z,10.23
2023-02-05T00:38:26.026Z,10.50
2023-02-05T00:40:32.644Z,11.43
2023-02-05T00:42:37.704Z,11.52
2023-02-05T00:44:42.702Z,11.98
2023-02-05T00:46:47.648Z,11.70
2023-02-05T00:48:52.864Z,10.68
2023-02-05T00:51:00.370Z,12.02
2023-02-05T00:53:05.908Z,12.30
2023-02-05T00:55:12.447Z,12.60
2023-02-05T00:57:17.748Z,10.85
2023-02-05T00:59:23.992Z,10.77
2023-02-05T01:01:29.337Z,9.70
2023-02-05T01:03:35.272Z,10.23
2023-02-05T01:05:41.957Z,10.30
2023-02-05T01:07:49.709Z,9.88
2023-02-05T01:09:54.689Z,10.02
2023-02-05T01:12:00.507Z,10.70
2023-02-05T01:14:05.868Z,10.45
2023-02-05T01:16:12.009Z,9.82
2023-02-05T01:18:17.633Z,10.35
2023-02-05T01:20:23.330Z,10.38
2023-02-05T01:22:28.852Z,10.02
2023-02-05T01:24:36.617Z,10.50
2023-02-05T01:26:41.483Z,9.57
2023-02-05T01:28:47.603Z,9.00
2023-02-05T01:30:53.557Z,9.75
2023-02-05T01:32:58.863Z,9.38
2023-02-05T01:35:04.100Z,9.82
2023-02-05T01:37:09.034Z,8.27
2023-02-05T01:39:14.931Z,8.68
2023-02-05T01:41:23.304Z,8.68
2023-02-05T01:43:28.192Z,8.80
2023-02-05T01:46:03.539Z,8.93
2023-02-05T01:48:12.443Z,8.05
2023-02-05T01:50:18.431Z,8.52
2023-02-05T01:52:23.316Z,8.82
2023-02-05T01:54:34.113Z,8.32
2023-02-05T01:56:45.627Z,9.13
2023-02-05T01:58:56.643Z,7.93
2023-02-05T02:01:02.976Z,8.20
2023-02-05T02:03:08.707Z,8.13
2023-02-05T02:05:18.115Z,9.02
2023-02-05T02:07:26.515Z,8.18
2023-02-05T02:09:31.520Z,7.93
2023-02-05T02:11:42.350Z,8.50
2023-02-05T02:13:50.964Z,10.80
2023-02-05T02:15:58.236Z,10.88
2023-02-05T02:18:18.659Z,12.57
2023-02-05T02:20:27.167Z,11.20
2023-02-05T02:22:56.819Z,11.40
2023-02-05T02:25:41.027Z,11.73
2023-02-05T02:27:56.638Z,10.50
2023-02-05T02:30:08.656Z,9.05
2023-02-05T02:32:23.378Z,9.05
2023-02-05T02:34:35.958Z,8.02
2023-02-05T02:36:50.497Z,7.97
2023-02-05T02:39:04.006Z,8.98
2023-02-05T02:41:16.148Z,8.60
2023-02-05T02:43:33.761Z,9.07
2023-02-05T02:45:48.097Z,8.98
2023-02-05T02:47:58.806Z,9.57
2023-02-05T02:50:09.324Z,9.52
2023-02-05T02:52:18.198Z,10.20
2023-02-05T02:54:27.234Z,10.90
2023-02-05T02:56:36.398Z,9.77
2023-02-05T02:58:48.743Z,10.15
2023-02-05T03:00:56.736Z,10.18
2023-02-05T03:03:08.347Z,10.27
2023-02-05T03:05:20.587Z,9.15
2023-02-05T03:07:32.281Z,9.77
2023-02-05T03:09:45.427Z,9.02
2023-02-05T03:11:51.256Z,7.68
2023-02-05T03:14:01.118Z,8.90
2023-02-05T03:16:11.250Z,9.32
2023-02-05T03:18:18.519Z,8.35
2023-02-05T03:20:29.991Z,9.55
2023-02-05T03:22:35.584Z,8.43
2023-02-05T03:24:42.512Z,9.15
2023-02-05T03:26:47.732Z,7.72
2023-02-05T03:29:01.468Z,7.40
2023-02-05T03:31:13.071Z,7.32
2023-02-05T03:33:41.495Z,7.40
2023-02-05T03:35:58.408Z,7.53
2023-02-05T03:38:36.750Z,6.88
2023-02-05T03:40:54.038Z,6.97
2023-02-05T03:43:13.255Z,7.22
2023-02-05T03:45:51.765Z,6.72
2023-02-05T03:48:14.154Z,7.35
2023-02-05T03:50:26.759Z,8.20
2023-02-05T03:52:36.905Z,9.30
2023-02-05T03:54:54.284Z,8.98
2023-02-05T03:57:11.400Z,8.85
2023-02-05T03:59:19.538Z,9.20
2023-02-05T04:01:28.442Z,9.07
2023-02-05T04:03:34.083Z,9.93
2023-02-05T04:05:39.283Z,10.30
2023-02-05T04:07:44.188Z,9.23
2023-02-05T04:09:50.720Z,9.05
2023-02-05T04:11:55.700Z,9.32
2023-02-05T04:14:00.884Z,9.32
2023-02-05T04:16:07.192Z,9.32
2023-02-05T04:18:14.750Z,9.57
2023-02-05T04:20:22.299Z,8.68
2023-02-05T04:22:27.171Z,9.50
2023-02-05T04:24:32.503Z,8.35
2023-02-05T04:26:37.480Z,10.02
2023-02-05T04:28:44.837Z,9.50
2023-02-05T04:30:50.063Z,9.13
2023-02-05T04:32:57.727Z,9.77
2023-02-05T04:35:05.634Z,9.32
2023-02-05T04:37:10.676Z,9.98
2023-02-05T04:39:15.569Z,9.25
2023-02-05T04:41:20.453Z,9.25
2023-02-05T04:43:25.797Z,9.20
2023-02-05T04:45:31.415Z,10.30
2023-02-05T04:47:37.557Z,10.00
2023-02-05T04:49:43.063Z,10.13
2023-02-05T04:51:50.497Z,9.95
2023-02-05T04:53:56.073Z,9.82
2023-02-05T04:56:09.381Z,10.00
2023-02-05T04:58:14.574Z,10.20
2023-02-05T05:00:20.572Z,10.38
2023-02-05T05:02:25.830Z,10.57
2023-02-05T05:04:31.447Z,10.75
2023-02-05T05:06:37.373Z,10.93
2023-02-05T05:08:45.553Z,9.60
2023-02-05T05:10:51.814Z,10.43
2023-02-05T05:12:56.714Z,9.60
2023-02-05T05:15:01.602Z,11.07
2023-02-05T05:17:06.504Z,10.55
2023-02-05T05:19:11.364Z,10.15
2023-02-05T05:21:16.457Z,8.68
2023-02-05T05:23:21.556Z,9.43
2023-02-05T05:25:29.662Z,10.07
2023-02-05T05:27:34.538Z,9.43
2023-02-05T05:29:40.843Z,9.05
2023-02-05T05:31:46.434Z,8.48
2023-02-05T05:33:52.837Z,9.05
2023-02-05T05:35:57.857Z,9.23
2023-02-05T05:38:04.029Z,10.52
2023-02-05T05:40:22.893Z,9.48
2023-02-05T05:42:43.148Z,9.40
2023-02-05T05:44:50.492Z,9.55
2023-02-05T05:46:55.788Z,10.18
2023-02-05T05:49:02.986Z,11.32
2023-02-05T05:51:08.744Z,10.50
2023-02-05T05:53:14.190Z,11.50
2023-02-05T05:55:19.215Z,10.88
2023-02-05T05:57:24.462Z,11.35
2023-02-05T05:59:31.961Z,11.82
2023-02-05T06:01:36.817Z,11.00
2023-02-05T06:03:42.635Z,11.32
2023-02-05T06:05:47.524Z,8.93
2023-02-05T06:07:52.704Z,10.27
2023-02-05T06:09:57.599Z,10.68
2023-02-05T06:12:02.754Z,10.15
2023-02-05T06:14:08.575Z,11.73
2023-02-05T06:16:16.709Z,9.80
2023-02-05T06:18:23.709Z,10.02
2023-02-05T06:20:29.073Z,9.77
2023-02-05T06:22:34.159Z,9.05
2023-02-05T06:24:39.004Z,10.10
2023-02-05T06:26:44.268Z,9.00
2023-02-05T06:28:49.530Z,7.60
2023-02-05T06:30:55.378Z,8.30
2023-02-05T06:33:02.856Z,8.27
2023-02-05T06:35:09.350Z,7.50
2023-02-05T06:37:14.233Z,8.35
2023-02-05T06:39:19.084Z,8.13
2023-02-05T06:41:24.208Z,7.28
2023-02-05T06:43:29.095Z,8.15
2023-02-05T06:45:37.663Z,7.38
2023-02-05T06:47:42.680Z,8.30
2023-02-05T06:49:50.285Z,8.70
2023-02-05T06:51:55.664Z,7.72
2023-02-05T06:54:02.194Z,8.38
2023-02-05T06:56:08.521Z,7.72
2023-02-05T06:58:13.430Z,8.18
2023-02-05T07:00:19.974Z,8.15
2023-02-05T07:02:24.840Z,8.02
2023-02-05T07:04:31.407Z,8.55
2023-02-05T07:06:38.938Z,8.10
2023-02-05T07:08:44.406Z,8.15
2023-02-05T07:10:49.228Z,7.13
2023-02-05T07:12:54.164Z,6.63
2023-02-05T07:14:59.121Z,6.38
2023-02-05T07:17:04.056Z,6.53
2023-02-05T07:19:12.810Z,5.47
2023-02-05T07:21:19.496Z,5.53
2023-02-05T07:23:26.942Z,6.15
2023-02-05T07:25:36.467Z,5.38
2023-02-05T07:27:41.604Z,4.95
2023-02-05T07:29:46.513Z,5.50
2023-02-05T07:31:52.743Z,5.07
2023-02-05T07:33:57.977Z,5.15
2023-02-05T07:36:05.928Z,5.32
2023-02-05T07:38:11.666Z,5.60
2023-02-05T07:40:19.373Z,5.43
2023-02-05T07:42:24.827Z,5.47
2023-02-05T07:44:35.075Z,4.80
2023-02-05T07:46:40.230Z,5.50
2023-02-05T07:48:45.413Z,6.80
2023-02-05T07:50:53.641Z,6.43
2023-02-05T07:52:58.467Z,6.85
2023-02-05T07:55:04.002Z,6.30
2023-02-05T07:57:11.803Z,6.47
2023-02-05T07:59:16.670Z,7.30
2023-02-05T08:01:21.935Z,7.25
2023-02-05T08:03:27.363Z,6.07
2023-02-05T08:05:32.542Z,5.57
2023-02-05T08:07:37.593Z,6.75
2023-02-05T08:09:43.145Z,6.00
2023-02-05T08:11:49.102Z,6.75
2023-02-05T08:13:58.170Z,6.70
2023-02-05T08:16:07.293Z,6.32
2023-02-05T08:18:12.605Z,6.18
2023-02-05T08:20:17.823Z,6.25
2023-02-05T08:22:22.841Z,6.55
2023-02-05T08:24:27.708Z,5.85
2023-02-05T08:26:32.541Z,6.00
2023-02-05T08:28:37.745Z,5.82
2023-02-05T08:30:45.182Z,6.43
2023-02-05T08:32:51.302Z,7.55
2023-02-05T08:34:56.373Z,6.38
2023-02-05T08:37:01.224Z,6.68
2023-02-05T08:39:07.723Z,8.40
2023-02-05T08:41:15.170Z,7.32
2023-02-05T08:43:20.854Z,7.35
2023-02-05T08:45:25.928Z,7.68
2023-02-05T08:47:33.345Z,7.20
2023-02-05T08:49:38.499Z,7.20
2023-02-05T08:51:43.734Z,6.85
2023-02-05T08:53:49.889Z,8.02
2023-02-05T08:55:58.353Z,7.40
2023-02-05T08:58:03.272Z,7.80
2023-02-05T09:00:10.545Z,7.13
2023-02-05T09:02:18.216Z,7.03
2023-02-05T09:04:25.978Z,7.47
2023-02-05T09:06:31.391Z,7.25
2023-02-05T09:08:36.324Z,7.95
2023-02-05T09:10:41.325Z,8.45
2023-02-05T09:12:46.312Z,9.23
2023-02-05T09:14:51.463Z,8.45
2023-02-05T09:16:56.445Z,8.05
2023-02-05T09:19:02.910Z,8.55
2023-02-05T09:21:13.988Z,8.55
2023-02-05T09:23:22.076Z,8.52
2023-02-05T09:25:29.645Z,8.07
2023-02-05T09:27:35.699Z,8.57
2023-02-05T09:29:41.178Z,8.57
2023-02-05T09:31:46.237Z,7.45
2023-02-05T09:33:51.226Z,8.50
2023-02-05T09:35:56.789Z,8.70
2023-02-05T09:38:05.667Z,8.75
2023-02-05T09:40:21.462Z,8.00
2023-02-05T09:42:38.996Z,8.07
2023-02-05T09:44:58.965Z,7.82
2023-02-05T09:47:10.284Z,8.10
2023-02-05T09:49:20.888Z,8.50
2023-02-05T09:51:33.685Z,9.60
2023-02-05T09:53:47.304Z,8.88
2023-02-05T09:55:52.908Z,9.00
2023-02-05T09:58:03.541Z,9.15
2023-02-05T10:00:22.444Z,11.93
2023-02-05T10:02:32.648Z,9.57
2023-02-05T10:04:37.513Z,9.95
2023-02-05T10:07:07.981Z,9.60
2023-02-05T10:09:40.959Z,8.73
2023-02-05T10:11:54.308Z,9.23
2023-02-05T10:14:17.350Z,9.50
2023-02-05T10:16:42.542Z,8.90
2023-02-05T10:19:04.136Z,8.85
2023-02-05T10:21:24.994Z,9.02
2023-02-05T10:23:54.826Z,9.77
2023-02-05T10:26:15.489Z,9.27
2023-02-05T10:28:47.246Z,9.27
2023-02-05T10:31:01.930Z,9.60
2023-02-05T10:33:19.736Z,9.93
2023-02-05T10:35:33.176Z,9.60
2023-02-05T10:37:46.398Z,9.75
2023-02-05T10:39:52.269Z,8.88
2023-02-05T10:42:04.863Z,9.45
2023-02-05T10:44:17.523Z,9.20
2023-02-05T10:46:23.006Z,9.50
2023-02-05T10:48:44.790Z,10.65
2023-02-05T10:51:01.820Z,9.45
2023-02-05T10:55:14.749Z,9.73
2023-02-05T10:57:25.862Z,9.65
2023-02-05T10:59:35.808Z,9.90
2023-02-05T11:01:41.700Z,9.27
2023-02-05T11:04:00.766Z,10.13
2023-02-05T11:06:11.447Z,11.00
2023-02-05T11:08:36.290Z,11.05
2023-02-05T11:10:41.385Z,9.40
2023-02-05T11:12:52.962Z,8.90
2023-02-05T11:15:02.177Z,9.35
2023-02-05T11:17:21.801Z,10.13
2023-02-05T11:19:30.681Z,9.88
2023-02-05T11:21:55.009Z,10.20
2023-02-05T11:24:01.080Z,10.90
2023-02-05T11:26:20.144Z,13.23
2023-02-05T11:28:31.920Z,12.32
2023-02-05T11:30:54.310Z,11.27
2023-02-05T11:33:00.389Z,11.27
2023-02-05T11:35:25.556Z,9.25
2023-02-05T11:37:30.511Z,11.10
2023-02-05T11:39:40.733Z,9.80
2023-02-05T11:41:52.230Z,11.35
2023-02-05T11:44:03.164Z,10.05
2023-02-05T11:46:13.311Z,12.65
2023-02-05T11:48:34.477Z,13.57
2023-02-05T11:50:39.394Z,16.35
2023-02-05T11:52:44.405Z,13.65
2023-02-05T11:54:50.818Z,11.82
2023-02-05T11:57:10.391Z,10.63
2023-02-05T11:59:25.496Z,9.30
2023-02-05T12:01:34.425Z,10.05
2023-02-05T12:03:39.904Z,11.50
2023-02-05T12:05:53.592Z,10.13
2023-02-05T12:08:08.877Z,10.07
2023-02-05T12:10:26.533Z,9.07
2023-02-05T12:12:43.218Z,9.68
2023-02-05T12:14:58.908Z,8.60
2023-02-05T12:17:24.850Z,10.13
2023-02-05T12:19:39.747Z,13.77
2023-02-05T12:21:52.952Z,12.73
2023-02-05T12:24:19.697Z,10.45
2023-02-05T12:26:34.043Z,10.13
2023-02-05T12:28:51.080Z,10.63
2023-02-05T12:31:17.733Z,9.70
2023-02-05T12:33:54.103Z,9.57
2023-02-05T12:36:13.227Z,10.05
2023-02-05T12:38:32.563Z,9.23
2023-02-05T12:40:51.453Z,8.98
2023-02-05T12:43:05.217Z,9.65
2023-02-05T12:45:31.259Z,9.52
2023-02-05T12:48:04.502Z,9.88
2023-02-05T12:50:39.804Z,11.00
2023-02-05T12:53:15.672Z,9.75
2023-02-05T12:55:36.751Z,10.93
2023-02-05T12:57:46.979Z,11.90
2023-02-05T12:59:56.618Z,11.95
2023-02-05T13:02:09.066Z,11.73
2023-02-05T13:04:28.572Z,11.23
2023-02-05T13:06:39.540Z,10.48
2023-02-05T13:08:50.593Z,10.90
2023-02-05T13:11:01.394Z,11.18
2023-02-05T13:13:14.080Z,10.82
2023-02-05T13:15:24.966Z,11.75
2023-02-05T13:17:36.746Z,9.88
2023-02-05T13:19:49.091Z,9.65
2023-02-05T13:22:10.409Z,9.67
2023-02-05T13:24:41.965Z,10.70
2023-02-05T13:27:02.568Z,10.23
2023-02-05T13:29:12.044Z,11.25
2023-02-05T13:31:31.003Z,10.10
2023-02-05T13:33:37.575Z,10.55
2023-02-05T13:35:54.710Z,10.60
2023-02-05T13:38:37.451Z,10.98
2023-02-05T13:41:19.557Z,11.82
2023-02-05T13:44:07.727Z,11.23
2023-02-05T13:46:43.946Z,9.73
2023-02-05T13:49:41.700Z,9.90
2023-02-05T13:52:24.375Z,10.48
2023-02-05T13:55:07.362Z,10.73
2023-02-05T13:57:50.078Z,11.48
2023-02-05T13:59:57.037Z,11.47
2023-02-05T14:02:04.334Z,11.52
2023-02-05T14:04:20.207Z,12.82
2023-02-05T14:06:32.984Z,14.15
2023-02-05T14:08:42.425Z,13.75
2023-02-05T14:10:49.547Z,14.93
2023-02-05T14:12:54.949Z,14.02
2023-02-05T14:15:39.886Z,13.80
2023-02-05T14:17:58.709Z,20.13
2023-02-05T14:20:06.127Z,13.60
2023-02-05T14:22:15.810Z,13.75
2023-02-05T14:24:52.245Z,17.15
2023-02-05T14:27:00.778Z,17.00
2023-02-05T14:29:05.770Z,15.30
2023-02-05T14:31:11.695Z,16.00
2023-02-05T14:33:39.625Z,15.95
2023-02-05T14:35:48.164Z,12.43
2023-02-05T14:37:53.941Z,11.00
2023-02-05T14:40:02.333Z,16.48
2023-02-05T14:42:10.324Z,17.60
2023-02-05T14:44:27.334Z,17.50
2023-02-05T14:46:36.515Z,16.70
2023-02-05T14:48:48.993Z,17.50
2023-02-05T14:51:07.019Z,11.18
2023-02-05T14:53:29.677Z,14.07
2023-02-05T14:55:43.978Z,15.80
2023-02-05T14:57:53.284Z,14.63
2023-02-05T15:00:02.928Z,14.65
2023-02-05T15:03:02.520Z,13.93
2023-02-05T15:05:08.915Z,14.15
2023-02-05T15:07:18.529Z,14.73
2023-02-05T15:09:34.443Z,13.63
2023-02-05T15:12:17.197Z,12.93
2023-02-05T15:14:44.765Z,13.25
2023-02-05T15:16:50.125Z,12.82
2023-02-05T15:18:56.728Z,11.93
2023-02-05T15:21:02.448Z,13.40
2023-02-05T15:23:37.908Z,13.90
2023-02-05T15:25:46.659Z,11.75
2023-02-05T15:28:00.097Z,11.48
2023-02-05T15:30:10.910Z,12.05
2023-02-05T15:32:25.609Z,10.35
2023-02-05T15:34:38.022Z,11.35
2023-02-05T15:36:49.914Z,12.25
2023-02-05T15:39:06.149Z,11.90
2023-02-05T15:41:13.968Z,11.73
2023-02-05T15:43:25.052Z,12.40
2023-02-05T15:45:33.823Z,13.88
2023-02-05T15:47:39.057Z,12.80
2023-02-05T15:49:49.137Z,12.98
2023-02-05T15:51:54.367Z,13.52
2023-02-05T15:54:01.475Z,14.10
2023-02-05T15:56:14.377Z,13.68
2023-02-05T15:58:27.048Z,15.70
2023-02-05T16:00:34.973Z,14.35
2023-02-05T16:02:43.656Z,14.68
2023-02-05T16:04:56.905Z,14.43
2023-02-05T16:07:02.333Z,14.02
2023-02-05T16:09:20.176Z,14.27
2023-02-05T16:11:33.739Z,15.90
2023-02-05T16:13:41.324Z,14.75
2023-02-05T16:15:55.413Z,17.65
2023-02-05T16:18:02.316Z,17.58
2023-02-05T16:20:26.752Z,18.50
2023-02-05T16:22:41.077Z,20.08
2023-02-05T16:24:49.252Z,20.05
2023-02-05T16:27:01.011Z,18.63
2023-02-05T16:29:24.764Z,21.17
2023-02-05T16:31:32.420Z,21.98
2023-02-05T16:33:43.405Z,24.98
2023-02-05T16:35:51.310Z,23.00
2023-02-05T16:37:56.459Z,17.58
2023-02-05T16:40:06.064Z,18.42
2023-02-05T16:42:29.984Z,17.40
2023-02-05T16:44:41.677Z,17.90
2023-02-05T16:46:46.676Z,19.40
2023-02-05T16:48:53.637Z,19.38
2023-02-05T16:50:59.904Z,18.20
2023-02-05T16:53:05.718Z,21.08
2023-02-05T16:55:45.645Z,18.23
2023-02-05T16:57:50.657Z,18.38
2023-02-05T16:59:59.873Z,16.60
2023-02-05T17:02:05.961Z,17.85
2023-02-05T17:04:26.945Z,18.48
2023-02-05T17:06:37.504Z,17.17
2023-02-05T17:08:45.443Z,17.23
2023-02-05T17:10:56.400Z,17.98
2023-02-05T17:13:05.440Z,18.23
2023-02-05T17:15:30.774Z,17.20
2023-02-05T17:17:35.827Z,17.08
2023-02-05T17:19:41.014Z,17.52
2023-02-05T17:21:45.903Z,17.92
2023-02-05T17:23:52.177Z,18.40
2023-02-05T17:26:00.039Z,16.67
2023-02-05T17:28:05.748Z,18.60
2023-02-05T17:30:20.666Z,18.20
2023-02-05T17:32:27.018Z,18.83
2023-02-05T17:34:32.345Z,16.77
2023-02-05T17:36:37.242Z,16.60
2023-02-05T17:38:42.147Z,16.05
2023-02-05T17:40:48.140Z,17.42
2023-02-05T17:42:55.591Z,17.90
2023-02-05T17:45:00.743Z,17.70
2023-02-05T17:47:07.552Z,19.17
2023-02-05T17:49:13.669Z,19.27
2023-02-05T17:51:23.359Z,18.02
2023-02-05T17:53:29.068Z,17.67
2023-02-05T17:55:34.024Z,17.35
2023-02-05T17:57:39.606Z,18.35
2023-02-05T17:59:47.505Z,16.27
2023-02-05T18:01:54.664Z,18.35
2023-02-05T18:03:59.820Z,17.10
2023-02-05T18:06:04.963Z,17.13
2023-02-05T18:08:10.167Z,20.52
2023-02-05T18:10:18.867Z,24.73
2023-02-05T18:12:23.752Z,20.05
2023-02-05T18:14:29.057Z,20.27
2023-02-05T18:16:37.846Z,16.60
2023-02-05T18:18:43.067Z,17.02
2023-02-05T18:20:48.368Z,17.02
2023-02-05T18:22:54.179Z,17.65
2023-02-05T18:24:59.244Z,19.13
2023-02-05T18:27:04.438Z,17.65
2023-02-05T18:29:09.353Z,17.73
2023-02-05T18:31:14.876Z,18.10
2023-02-05T18:33:22.729Z,18.33
2023-02-05T18:35:28.231Z,19.33
2023-02-05T18:37:33.223Z,20.27
2023-02-05T18:39:38.113Z,22.80
2023-02-05T18:41:43.762Z,20.90
2023-02-05T18:43:49.412Z,20.50
2023-02-05T18:45:55.381Z,19.52
2023-02-05T18:48:01.326Z,18.88
2023-02-05T18:50:11.463Z,20.20
2023-02-05T18:52:18.430Z,19.65
2023-02-05T18:54:23.670Z,19.33
2023-02-05T18:56:31.128Z,18.55
2023-02-05T18:58:38.076Z,20.70
2023-02-05T19:00:42.960Z,19.85
2023-02-05T19:02:49.023Z,21.40
2023-02-05T19:04:56.342Z,21.42
2023-02-05T19:07:04.000Z,19.20
2023-02-05T19:09:08.881Z,21.85
2023-02-05T19:11:16.947Z,21.17
2023-02-05T19:13:22.350Z,21.00
2023-02-05T19:15:28.326Z,19.80
2023-02-05T19:17:33.949Z,21.80
2023-02-05T19:19:40.677Z,21.42
2023-02-05T19:21:47.724Z,21.60
2023-02-05T19:23:57.508Z,20.88
2023-02-05T19:26:07.098Z,19.75
2023-02-05T19:28:11.999Z,18.25
2023-02-05T19:30:17.458Z,18.17
2023-02-05T19:32:23.582Z,20.88
2023-02-05T19:34:28.975Z,19.92
2023-02-05T19:36:35.831Z,19.33
2023-02-05T19:38:43.328Z,19.95
2023-02-05T19:40:50.763Z,20.40
2023-02-05T19:42:56.925Z,19.98
2023-02-05T19:45:02.468Z,20.70
2023-02-05T19:47:08.547Z,20.52
2023-02-05T19:49:16.781Z,21.45
2023-02-05T19:51:23.844Z,20.23
2023-02-05T19:53:28.909Z,22.30
2023-02-05T19:55:36.189Z,23.77
2023-02-05T19:57:45.344Z,23.13
2023-02-05T19:59:50.979Z,23.95
2023-02-05T20:01:56.564Z,23.45
2023-02-05T20:04:08.688Z,22.02
2023-02-05T20:06:17.374Z,23.92
2023-02-05T20:08:22.583Z,24.13
2023-02-05T20:10:27.454Z,24.17
2023-02-05T20:12:32.339Z,22.52
2023-02-05T20:14:40.161Z,23.23
2023-02-05T20:16:46.369Z,23.48
2023-02-05T20:18:56.507Z,21.88
2023-02-05T20:21:01.501Z,24.00
2023-02-05T20:23:06.469Z,23.70
2023-02-05T20:25:11.914Z,22.27
2023-02-05T20:27:17.100Z,23.15
2023-02-05T20:29:34.554Z,22.90
2023-02-05T20:31:44.299Z,21.25
2023-02-05T20:33:50.262Z,20.92
2023-02-05T20:35:55.965Z,22.00
2023-02-05T20:38:01.193Z,25.05
2023-02-05T20:40:06.733Z,22.45
2023-02-05T20:42:13.557Z,22.77
2023-02-05T20:44:19.149Z,21.65
2023-02-05T20:46:25.904Z,22.33
2023-02-05T20:48:34.598Z,23.90
2023-02-05T20:50:39.699Z,23.95
2023-02-05T20:52:45.231Z,21.73
2023-02-05T20:54:52.750Z,23.23
2023-02-05T20:56:59.434Z,22.65
2023-02-05T20:59:07.153Z,25.58
2023-02-05T21:01:15.573Z,26.23
2023-02-05T21:03:20.584Z,27.85
2023-02-05T21:05:28.367Z,26.52
2023-02-05T21:07:35.809Z,25.05
2023-02-05T21:09:41.056Z,23.52
2023-02-05T21:11:46.888Z,21.27
2023-02-05T21:13:54.173Z,22.63
2023-02-05T21:16:02.676Z,20.42
2023-02-05T21:18:08.669Z,20.92
2023-02-05T21:20:14.485Z,23.10
2023-02-05T21:22:22.227Z,22.85
2023-02-05T21:24:27.504Z,22.60
2023-02-05T21:26:35.973Z,21.00
2023-02-05T21:28:41.260Z,23.13
2023-02-05T21:30:51.545Z,22.33
2023-02-05T21:32:57.065Z,21.05
2023-02-05T21:35:03.352Z,21.23
2023-02-05T21:37:08.590Z,21.23
2023-02-05T21:39:16.755Z,21.70
2023-02-05T21:41:22.483Z,24.80
2023-02-05T21:43:28.794Z,23.42
2023-02-05T21:45:36.800Z,21.95
2023-02-05T21:47:42.538Z,23.63
2023-02-05T21:49:48.336Z,22.50
2023-02-05T21:51:54.061Z,22.70
2023-02-05T21:54:01.606Z,22.90
2023-02-05T21:56:15.610Z,23.30
2023-02-05T21:58:20.632Z,22.92
2023-02-05T22:00:26.200Z,24.85
2023-02-05T22:02:31.448Z,22.67
2023-02-05T22:04:36.888Z,22.80
2023-02-05T22:06:43.008Z,24.38
2023-02-05T22:08:50.859Z,24.60
2023-02-05T22:10:55.787Z,21.90
2023-02-05T22:13:03.727Z,21.67
2023-02-05T22:15:09.982Z,23.88
2023-02-05T22:17:15.396Z,21.55
2023-02-05T22:19:20.939Z,22.05
2023-02-05T22:21:29.063Z,21.98
2023-02-05T22:23:34.533Z,22.90
2023-02-05T22:25:40.472Z,23.15
2023-02-05T22:27:46.170Z,21.92
2023-02-05T22:29:56.095Z,22.60
2023-02-05T22:32:01.040Z,21.80
2023-02-05T22:34:06.895Z,22.23
2023-02-05T22:36:15.421Z,20.67
2023-02-05T22:38:20.277Z,21.85
2023-02-05T22:40:25.363Z,23.70
2023-02-05T22:42:30.378Z,22.83
2023-02-05T22:44:35.525Z,22.73
2023-02-05T22:46:46.013Z,23.27
2023-02-05T22:48:53.656Z,24.17
2023-02-05T22:50:59.368Z,23.35
2023-02-05T22:53:04.208Z,23.48
2023-02-05T22:55:09.972Z,24.48
2023-02-05T22:57:15.526Z,23.27
2023-02-05T22:59:20.392Z,24.85
2023-02-05T23:01:28.309Z,25.10
2023-02-05T23:03:35.746Z,25.13
2023-02-05T23:05:40.667Z,24.92
2023-02-05T23:07:51.722Z,26.27
2023-02-05T23:09:56.580Z,25.42
2023-02-05T23:12:03.244Z,25.45
2023-02-05T23:14:10.224Z,24.65
2023-02-05T23:16:18.101Z,24.15
2023-02-05T23:18:23.105Z,23.65
2023-02-05T23:20:30.730Z,23.33
2023-02-05T23:22:36.104Z,24.50
2023-02-05T23:24:41.083Z,24.38
2023-02-05T23:26:49.201Z,23.50
2023-02-05T23:28:56.092Z,23.50
2023-02-05T23:31:01.057Z,24.67
2023-02-05T23:33:06.937Z,22.90
2023-02-05T23:35:11.844Z,23.98
2023-02-05T23:37:19.736Z,23.27
2023-02-05T23:39:24.871Z,23.98
2023-02-05T23:41:40.387Z,24.02
2023-02-05T23:43:45.317Z,23.42
2023-02-05T23:45:50.749Z,25.10
2023-02-05T23:47:56.401Z,23.60
2023-02-05T23:50:01.329Z,21.83
2023-02-05T23:52:07.866Z,21.33
2023-02-05T23:54:15.669Z,21.15
2023-02-05T23:56:20.988Z,21.92
2023-02-05T23:58:28.325Z,21.13
